sensor_id;sensor_type;location;lat;lon;timestamp;temperature;humidity
76577;DHT22;65441;44.748;37.600;2023-07-08T00:00:48;26.37;84.52
76577;DHT22;65441;44.748;37.600;2023-07-08T00:03:19;26.23;84.87
76577;DHT22;65441;44.748;37.600;2023-07-08T00:05:53;26.15;85.13
76577;DHT22;65441;44.748;37.600;2023-07-08T00:08:21;26.13;84.82
76577;DHT22;65441;44.748;37.600;2023-07-08T00:10:49;26.05;86.02
76577;DHT22;65441;44.748;37.600;2023-07-08T00:13:18;25.91;87.11
76577;DHT22;65441;44.748;37.600;2023-07-08T00:15:46;25.91;87.09
76577;DHT22;65441;44.748;37.600;2023-07-08T00:18:16;25.83;87.68
76577;DHT22;65441;44.748;37.600;2023-07-08T00:20:48;25.84;87.42
76577;DHT22;65441;44.748;37.600;2023-07-08T00:23:17;25.68;88.29
76577;DHT22;65441;44.748;37.600;2023-07-08T00:25:48;25.71;87.94
76577;DHT22;65441;44.748;37.600;2023-07-08T00:28:18;25.74;87.34
76577;DHT22;65441;44.748;37.600;2023-07-08T00:30:48;25.72;87.65
76577;DHT22;65441;44.748;37.600;2023-07-08T00:33:16;25.82;87.50
76577;DHT22;65441;44.748;37.600;2023-07-08T00:35:48;25.67;89.18
76577;DHT22;65441;44.748;37.600;2023-07-08T00:38:20;25.65;89.28
76577;DHT22;65441;44.748;37.600;2023-07-08T00:40:58;25.71;89.44
76577;DHT22;65441;44.748;37.600;2023-07-08T00:43:35;25.80;88.76
76577;DHT22;65441;44.748;37.600;2023-07-08T00:46:15;25.81;89.28
76577;DHT22;65441;44.748;37.600;2023-07-08T00:48:49;25.64;90.38
76577;DHT22;65441;44.748;37.600;2023-07-08T00:51:20;25.59;90.81
76577;DHT22;65441;44.748;37.600;2023-07-08T00:53:49;25.54;91.01
76577;DHT22;65441;44.748;37.600;2023-07-08T00:56:22;25.59;90.84
76577;DHT22;65441;44.748;37.600;2023-07-08T00:58:55;25.64;90.21
76577;DHT22;65441;44.748;37.600;2023-07-08T01:01:25;25.52;90.60
76577;DHT22;65441;44.748;37.600;2023-07-08T01:03:57;25.54;90.12
76577;DHT22;65441;44.748;37.600;2023-07-08T01:06:32;25.51;90.50
76577;DHT22;65441;44.748;37.600;2023-07-08T01:09:07;25.63;89.39
76577;DHT22;65441;44.748;37.600;2023-07-08T01:11:38;25.60;89.32
76577;DHT22;65441;44.748;37.600;2023-07-08T01:14:08;25.57;89.76
76577;DHT22;65441;44.748;37.600;2023-07-08T01:16:38;25.57;89.76
76577;DHT22;65441;44.748;37.600;2023-07-08T01:19:12;25.49;90.19
76577;DHT22;65441;44.748;37.600;2023-07-08T01:21:46;25.58;89.61
76577;DHT22;65441;44.748;37.600;2023-07-08T01:24:15;25.47;90.08
76577;DHT22;65441;44.748;37.600;2023-07-08T01:26:44;25.59;89.16
76577;DHT22;65441;44.748;37.600;2023-07-08T01:29:13;25.69;88.43
76577;DHT22;65441;44.748;37.600;2023-07-08T01:31:42;25.92;87.43
76577;DHT22;65441;44.748;37.600;2023-07-08T01:34:16;25.87;87.53
76577;DHT22;65441;44.748;37.600;2023-07-08T01:36:53;25.96;87.73
76577;DHT22;65441;44.748;37.600;2023-07-08T01:39:23;25.89;88.20
76577;DHT22;65441;44.748;37.600;2023-07-08T01:41:52;25.84;87.99
76577;DHT22;65441;44.748;37.600;2023-07-08T01:44:26;25.77;88.60
76577;DHT22;65441;44.748;37.600;2023-07-08T01:46:56;25.73;88.91
76577;DHT22;65441;44.748;37.600;2023-07-08T01:49:26;25.76;88.50
76577;DHT22;65441;44.748;37.600;2023-07-08T01:51:56;25.74;88.70
76577;DHT22;65441;44.748;37.600;2023-07-08T01:54:26;25.71;88.60
76577;DHT22;65441;44.748;37.600;2023-07-08T01:56:55;25.77;88.41
76577;DHT22;65441;44.748;37.600;2023-07-08T01:59:23;25.71;88.87
76577;DHT22;65441;44.748;37.600;2023-07-08T02:01:52;25.69;88.49
76577;DHT22;65441;44.748;37.600;2023-07-08T02:04:21;25.81;88.00
76577;DHT22;65441;44.748;37.600;2023-07-08T02:06:53;25.83;87.81
76577;DHT22;65441;44.748;37.600;2023-07-08T02:09:23;25.81;87.94
76577;DHT22;65441;44.748;37.600;2023-07-08T02:11:52;25.75;88.44
76577;DHT22;65441;44.748;37.600;2023-07-08T02:14:21;25.83;87.35
76577;DHT22;65441;44.748;37.600;2023-07-08T02:16:50;25.84;87.85
76577;DHT22;65441;44.748;37.600;2023-07-08T02:19:18;25.84;88.17
76577;DHT22;65441;44.748;37.600;2023-07-08T02:21:48;25.93;87.61
76577;DHT22;65441;44.748;37.600;2023-07-08T02:24:18;25.94;87.03
76577;DHT22;65441;44.748;37.600;2023-07-08T02:26:51;25.95;87.60
76577;DHT22;65441;44.748;37.600;2023-07-08T02:29:21;26.01;86.64
76577;DHT22;65441;44.748;37.600;2023-07-08T02:31:49;26.04;87.10
76577;DHT22;65441;44.748;37.600;2023-07-08T02:34:17;25.97;87.24
76577;DHT22;65441;44.748;37.600;2023-07-08T02:36:45;25.96;87.26
76577;DHT22;65441;44.748;37.600;2023-07-08T02:39:13;26.02;86.67
76577;DHT22;65441;44.748;37.600;2023-07-08T02:41:42;25.86;87.43
76577;DHT22;65441;44.748;37.600;2023-07-08T02:44:11;25.84;87.40
76577;DHT22;65441;44.748;37.600;2023-07-08T02:46:39;25.88;87.32
76577;DHT22;65441;44.748;37.600;2023-07-08T02:49:08;25.97;87.04
76577;DHT22;65441;44.748;37.600;2023-07-08T02:51:37;25.92;87.17
76577;DHT22;65441;44.748;37.600;2023-07-08T02:54:05;26.01;87.15
76577;DHT22;65441;44.748;37.600;2023-07-08T02:56:34;26.03;87.32
76577;DHT22;65441;44.748;37.600;2023-07-08T02:59:02;26.06;86.46
76577;DHT22;65441;44.748;37.600;2023-07-08T03:01:32;26.02;86.45
76577;DHT22;65441;44.748;37.600;2023-07-08T03:04:08;26.03;86.58
76577;DHT22;65441;44.748;37.600;2023-07-08T03:06:40;25.97;87.42
76577;DHT22;65441;44.748;37.600;2023-07-08T03:09:08;25.94;87.80
76577;DHT22;65441;44.748;37.600;2023-07-08T03:11:37;25.95;88.14
76577;DHT22;65441;44.748;37.600;2023-07-08T03:14:05;25.96;87.72
76577;DHT22;65441;44.748;37.600;2023-07-08T03:16:35;25.92;88.38
76577;DHT22;65441;44.748;37.600;2023-07-08T03:19:03;26.10;86.78
76577;DHT22;65441;44.748;37.600;2023-07-08T03:21:33;26.12;87.25
76577;DHT22;65441;44.748;37.600;2023-07-08T03:24:04;26.22;86.35
76577;DHT22;65441;44.748;37.600;2023-07-08T03:26:32;26.26;85.96
76577;DHT22;65441;44.748;37.600;2023-07-08T03:29:01;26.27;85.48
76577;DHT22;65441;44.748;37.600;2023-07-08T03:31:30;26.22;85.14
76577;DHT22;65441;44.748;37.600;2023-07-08T03:34:00;26.32;85.21
76577;DHT22;65441;44.748;37.600;2023-07-08T03:36:30;26.33;84.65
76577;DHT22;65441;44.748;37.600;2023-07-08T03:38:58;26.23;84.72
76577;DHT22;65441;44.748;37.600;2023-07-08T03:41:29;26.09;85.21
76577;DHT22;65441;44.748;37.600;2023-07-08T03:43:59;26.09;85.55
76577;DHT22;65441;44.748;37.600;2023-07-08T03:46:28;26.07;85.55
76577;DHT22;65441;44.748;37.600;2023-07-08T03:48:56;26.10;85.74
76577;DHT22;65441;44.748;37.600;2023-07-08T03:51:27;26.15;85.45
76577;DHT22;65441;44.748;37.600;2023-07-08T03:53:56;26.18;85.72
76577;DHT22;65441;44.748;37.600;2023-07-08T03:56:25;26.25;85.00
76577;DHT22;65441;44.748;37.600;2023-07-08T03:58:55;26.28;84.69
76577;DHT22;65441;44.748;37.600;2023-07-08T04:01:26;26.40;83.57
76577;DHT22;65441;44.748;37.600;2023-07-08T04:03:57;26.50;83.00
76577;DHT22;65441;44.748;37.600;2023-07-08T04:06:27;26.51;82.75
76577;DHT22;65441;44.748;37.600;2023-07-08T04:08:56;26.50;82.96
76577;DHT22;65441;44.748;37.600;2023-07-08T04:11:27;26.54;82.72
76577;DHT22;65441;44.748;37.600;2023-07-08T04:13:59;26.52;82.91
76577;DHT22;65441;44.748;37.600;2023-07-08T04:16:30;26.52;83.09
76577;DHT22;65441;44.748;37.600;2023-07-08T04:18:59;26.52;82.81
76577;DHT22;65441;44.748;37.600;2023-07-08T04:21:30;26.51;83.31
76577;DHT22;65441;44.748;37.600;2023-07-08T04:24:00;26.49;83.32
76577;DHT22;65441;44.748;37.600;2023-07-08T04:26:29;26.48;84.08
76577;DHT22;65441;44.748;37.600;2023-07-08T04:28:57;26.51;84.17
76577;DHT22;65441;44.748;37.600;2023-07-08T04:31:25;26.48;84.09
76577;DHT22;65441;44.748;37.600;2023-07-08T04:33:57;26.57;83.78
76577;DHT22;65441;44.748;37.600;2023-07-08T04:36:28;26.65;82.79
76577;DHT22;65441;44.748;37.600;2023-07-08T04:38:57;26.64;82.80
76577;DHT22;65441;44.748;37.600;2023-07-08T04:41:27;26.77;82.26
76577;DHT22;65441;44.748;37.600;2023-07-08T04:43:58;26.81;81.84
76577;DHT22;65441;44.748;37.600;2023-07-08T04:46:33;26.97;80.87
76577;DHT22;65441;44.748;37.600;2023-07-08T04:49:05;27.12;81.22
76577;DHT22;65441;44.748;37.600;2023-07-08T04:51:36;27.23;80.10
76577;DHT22;65441;44.748;37.600;2023-07-08T04:54:07;27.26;79.70
76577;DHT22;65441;44.748;37.600;2023-07-08T04:56:37;27.20;78.97
76577;DHT22;65441;44.748;37.600;2023-07-08T04:59:08;26.98;79.56
76577;DHT22;65441;44.748;37.600;2023-07-08T05:01:40;26.91;79.97
76577;DHT22;65441;44.748;37.600;2023-07-08T05:04:17;26.76;80.93
76577;DHT22;65441;44.748;37.600;2023-07-08T05:06:50;26.72;81.12
76577;DHT22;65441;44.748;37.600;2023-07-08T05:09:22;26.64;81.82
76577;DHT22;65441;44.748;37.600;2023-07-08T05:11:52;26.45;81.54
76577;DHT22;65441;44.748;37.600;2023-07-08T05:14:23;26.28;80.96
76577;DHT22;65441;44.748;37.600;2023-07-08T05:16:51;26.27;80.01
76577;DHT22;65441;44.748;37.600;2023-07-08T05:19:24;26.16;79.81
76577;DHT22;65441;44.748;37.600;2023-07-08T05:21:56;26.38;79.78
76577;DHT22;65441;44.748;37.600;2023-07-08T05:24:27;26.49;79.01
76577;DHT22;65441;44.748;37.600;2023-07-08T05:26:56;26.53;79.23
76577;DHT22;65441;44.748;37.600;2023-07-08T05:29:26;26.45;80.04
76577;DHT22;65441;44.748;37.600;2023-07-08T05:31:56;26.77;79.19
76577;DHT22;65441;44.748;37.600;2023-07-08T05:34:29;26.62;78.32
76577;DHT22;65441;44.748;37.600;2023-07-08T05:36:59;26.35;79.02
76577;DHT22;65441;44.748;37.600;2023-07-08T05:39:31;26.12;79.78
76577;DHT22;65441;44.748;37.600;2023-07-08T05:42:01;26.08;80.33
76577;DHT22;65441;44.748;37.600;2023-07-08T05:44:29;26.12;80.16
76577;DHT22;65441;44.748;37.600;2023-07-08T05:46:57;26.26;79.69
76577;DHT22;65441;44.748;37.600;2023-07-08T05:49:26;26.39;78.12
76577;DHT22;65441;44.748;37.600;2023-07-08T05:51:54;26.22;78.59
76577;DHT22;65441;44.748;37.600;2023-07-08T05:54:23;26.24;78.79
76577;DHT22;65441;44.748;37.600;2023-07-08T05:56:52;26.24;78.88
76577;DHT22;65441;44.748;37.600;2023-07-08T05:59:23;26.26;78.87
76577;DHT22;65441;44.748;37.600;2023-07-08T06:01:51;26.33;78.93
76577;DHT22;65441;44.748;37.600;2023-07-08T06:04:19;26.38;78.45
76577;DHT22;65441;44.748;37.600;2023-07-08T06:06:50;26.56;78.55
76577;DHT22;65441;44.748;37.600;2023-07-08T06:09:20;26.66;77.87
76577;DHT22;65441;44.748;37.600;2023-07-08T06:11:49;26.82;77.10
76577;DHT22;65441;44.748;37.600;2023-07-08T06:14:19;27.38;75.44
76577;DHT22;65441;44.748;37.600;2023-07-08T06:16:49;27.67;74.12
76577;DHT22;65441;44.748;37.600;2023-07-08T06:19:21;27.50;74.52
76577;DHT22;65441;44.748;37.600;2023-07-08T06:21:52;27.36;74.91
76577;DHT22;65441;44.748;37.600;2023-07-08T06:24:27;27.34;74.82
76577;DHT22;65441;44.748;37.600;2023-07-08T06:26:56;27.63;74.87
76577;DHT22;65441;44.748;37.600;2023-07-08T06:29:30;27.69;74.09
76577;DHT22;65441;44.748;37.600;2023-07-08T06:32:01;28.17;73.53
76577;DHT22;65441;44.748;37.600;2023-07-08T06:34:35;28.12;72.54
76577;DHT22;65441;44.748;37.600;2023-07-08T06:37:06;28.55;70.46
76577;DHT22;65441;44.748;37.600;2023-07-08T06:39:38;28.59;71.29
76577;DHT22;65441;44.748;37.600;2023-07-08T06:42:09;28.97;70.42
76577;DHT22;65441;44.748;37.600;2023-07-08T06:44:49;29.03;69.45
76577;DHT22;65441;44.748;37.600;2023-07-08T06:47:23;28.78;69.24
76577;DHT22;65441;44.748;37.600;2023-07-08T06:49:52;28.95;69.62
76577;DHT22;65441;44.748;37.600;2023-07-08T06:52:23;29.24;69.13
76577;DHT22;65441;44.748;37.600;2023-07-08T06:54:51;29.20;68.81
76577;DHT22;65441;44.748;37.600;2023-07-08T06:57:21;29.03;69.52
76577;DHT22;65441;44.748;37.600;2023-07-08T06:59:53;29.26;69.42
76577;DHT22;65441;44.748;37.600;2023-07-08T07:02:22;29.21;68.78
76577;DHT22;65441;44.748;37.600;2023-07-08T07:04:51;29.38;68.91
76577;DHT22;65441;44.748;37.600;2023-07-08T07:07:23;29.68;67.39
76577;DHT22;65441;44.748;37.600;2023-07-08T07:09:54;29.66;67.59
76577;DHT22;65441;44.748;37.600;2023-07-08T07:12:24;29.78;66.92
76577;DHT22;65441;44.748;37.600;2023-07-08T07:14:54;29.81;66.71
76577;DHT22;65441;44.748;37.600;2023-07-08T07:17:26;29.89;67.25
76577;DHT22;65441;44.748;37.600;2023-07-08T07:19:55;30.20;65.99
76577;DHT22;65441;44.748;37.600;2023-07-08T07:22:26;30.40;64.97
76577;DHT22;65441;44.748;37.600;2023-07-08T07:24:55;30.13;66.11
76577;DHT22;65441;44.748;37.600;2023-07-08T07:27:25;29.88;66.74
76577;DHT22;65441;44.748;37.600;2023-07-08T07:29:58;29.83;67.23
76577;DHT22;65441;44.748;37.600;2023-07-08T07:32:31;29.97;66.72
76577;DHT22;65441;44.748;37.600;2023-07-08T07:35:01;29.77;66.98
76577;DHT22;65441;44.748;37.600;2023-07-08T07:37:29;29.94;67.46
76577;DHT22;65441;44.748;37.600;2023-07-08T07:40:01;30.33;66.15
76577;DHT22;65441;44.748;37.600;2023-07-08T07:42:39;30.11;66.76
76577;DHT22;65441;44.748;37.600;2023-07-08T07:45:12;30.47;65.59
76577;DHT22;65441;44.748;37.600;2023-07-08T07:47:46;30.39;65.33
76577;DHT22;65441;44.748;37.600;2023-07-08T07:50:16;30.25;66.15
76577;DHT22;65441;44.748;37.600;2023-07-08T07:52:44;30.09;66.75
76577;DHT22;65441;44.748;37.600;2023-07-08T07:55:13;29.89;67.40
76577;DHT22;65441;44.748;37.600;2023-07-08T07:57:41;29.59;68.60
76577;DHT22;65441;44.748;37.600;2023-07-08T08:00:14;29.53;68.90
76577;DHT22;65441;44.748;37.600;2023-07-08T08:02:44;29.35;70.17
76577;DHT22;65441;44.748;37.600;2023-07-08T08:05:13;29.31;70.17
76577;DHT22;65441;44.748;37.600;2023-07-08T08:07:44;29.36;70.90
76577;DHT22;65441;44.748;37.600;2023-07-08T08:10:16;29.52;69.96
76577;DHT22;65441;44.748;37.600;2023-07-08T08:12:44;30.01;68.60
76577;DHT22;65441;44.748;37.600;2023-07-08T08:15:16;30.00;66.75
76577;DHT22;65441;44.748;37.600;2023-07-08T08:17:48;30.27;66.36
76577;DHT22;65441;44.748;37.600;2023-07-08T08:20:21;30.54;65.56
76577;DHT22;65441;44.748;37.600;2023-07-08T08:22:51;30.62;64.99
76577;DHT22;65441;44.748;37.600;2023-07-08T08:25:21;30.67;65.20
76577;DHT22;65441;44.748;37.600;2023-07-08T08:27:49;30.75;65.27
76577;DHT22;65441;44.748;37.600;2023-07-08T08:30:20;31.20;63.25
76577;DHT22;65441;44.748;37.600;2023-07-08T08:32:49;30.76;64.44
76577;DHT22;65441;44.748;37.600;2023-07-08T08:35:17;30.56;65.02
76577;DHT22;65441;44.748;37.600;2023-07-08T08:37:45;30.33;66.71
76577;DHT22;65441;44.748;37.600;2023-07-08T08:40:15;30.25;67.83
76577;DHT22;65441;44.748;37.600;2023-07-08T08:42:51;30.42;66.36
76577;DHT22;65441;44.748;37.600;2023-07-08T08:45:29;30.47;65.95
76577;DHT22;65441;44.748;37.600;2023-07-08T08:48:04;30.53;66.18
76577;DHT22;65441;44.748;37.600;2023-07-08T08:50:44;29.94;67.39
76577;DHT22;65441;44.748;37.600;2023-07-08T08:53:22;30.21;67.55
76577;DHT22;65441;44.748;37.600;2023-07-08T08:56:00;30.13;67.29
76577;DHT22;65441;44.748;37.600;2023-07-08T08:58:35;30.48;64.86
76577;DHT22;65441;44.748;37.600;2023-07-08T09:01:14;30.69;65.95
76577;DHT22;65441;44.748;37.600;2023-07-08T09:03:46;30.63;64.24
76577;DHT22;65441;44.748;37.600;2023-07-08T09:06:18;30.66;65.30
76577;DHT22;65441;44.748;37.600;2023-07-08T09:08:54;30.72;65.46
76577;DHT22;65441;44.748;37.600;2023-07-08T09:11:42;30.61;65.77
76577;DHT22;65441;44.748;37.600;2023-07-08T09:14:22;29.86;66.39
76577;DHT22;65441;44.748;37.600;2023-07-08T09:17:09;29.33;67.93
76577;DHT22;65441;44.748;37.600;2023-07-08T09:19:45;29.27;69.45
76577;DHT22;65441;44.748;37.600;2023-07-08T09:22:18;29.46;69.43
76577;DHT22;65441;44.748;37.600;2023-07-08T09:24:53;29.15;70.26
76577;DHT22;65441;44.748;37.600;2023-07-08T09:27:23;29.23;69.98
76577;DHT22;65441;44.748;37.600;2023-07-08T09:29:56;29.45;68.84
76577;DHT22;65441;44.748;37.600;2023-07-08T09:32:32;29.09;70.74
76577;DHT22;65441;44.748;37.600;2023-07-08T09:35:08;29.20;71.39
76577;DHT22;65441;44.748;37.600;2023-07-08T09:37:47;29.26;70.43
76577;DHT22;65441;44.748;37.600;2023-07-08T09:40:20;28.83;71.86
76577;DHT22;65441;44.748;37.600;2023-07-08T09:45:41;28.78;72.53
76577;DHT22;65441;44.748;37.600;2023-07-08T09:48:18;28.98;71.52
76577;DHT22;65441;44.748;37.600;2023-07-08T09:50:48;29.00;71.86
76577;DHT22;65441;44.748;37.600;2023-07-08T09:53:25;28.97;72.56
76577;DHT22;65441;44.748;37.600;2023-07-08T09:55:56;29.09;72.59
76577;DHT22;65441;44.748;37.600;2023-07-08T09:58:30;29.35;71.38
76577;DHT22;65441;44.748;37.600;2023-07-08T10:01:02;29.12;71.52
76577;DHT22;65441;44.748;37.600;2023-07-08T10:03:37;29.00;71.97
76577;DHT22;65441;44.748;37.600;2023-07-08T10:06:16;28.63;73.20
76577;DHT22;65441;44.748;37.600;2023-07-08T10:08:44;28.21;74.12
76577;DHT22;65441;44.748;37.600;2023-07-08T10:11:18;28.31;74.36
76577;DHT22;65441;44.748;37.600;2023-07-08T10:13:52;28.73;73.07
76577;DHT22;65441;44.748;37.600;2023-07-08T10:16:24;28.87;72.38
76577;DHT22;65441;44.748;37.600;2023-07-08T10:18:55;28.88;72.14
76577;DHT22;65441;44.748;37.600;2023-07-08T10:21:33;28.79;73.22
76577;DHT22;65441;44.748;37.600;2023-07-08T10:24:19;28.55;72.65
76577;DHT22;65441;44.748;37.600;2023-07-08T10:26:52;28.91;71.63
76577;DHT22;65441;44.748;37.600;2023-07-08T10:29:29;29.08;71.48
76577;DHT22;65441;44.748;37.600;2023-07-08T10:32:07;29.89;69.02
76577;DHT22;65441;44.748;37.600;2023-07-08T10:34:46;29.88;67.88
76577;DHT22;65441;44.748;37.600;2023-07-08T10:37:23;29.79;68.42
76577;DHT22;65441;44.748;37.600;2023-07-08T10:40:07;29.78;68.19
76577;DHT22;65441;44.748;37.600;2023-07-08T10:43:03;29.41;70.03
76577;DHT22;65441;44.748;37.600;2023-07-08T10:45:40;29.13;71.24
76577;DHT22;65441;44.748;37.600;2023-07-08T10:48:24;29.36;70.77
76577;DHT22;65441;44.748;37.600;2023-07-08T10:51:11;29.42;69.57
76577;DHT22;65441;44.748;37.600;2023-07-08T10:53:58;29.42;69.50
76577;DHT22;65441;44.748;37.600;2023-07-08T10:56:37;29.64;67.58
76577;DHT22;65441;44.748;37.600;2023-07-08T10:59:28;29.76;68.31
76577;DHT22;65441;44.748;37.600;2023-07-08T11:02:39;29.31;70.51
76577;DHT22;65441;44.748;37.600;2023-07-08T11:05:23;29.60;70.54
76577;DHT22;65441;44.748;37.600;2023-07-08T11:07:58;29.80;68.85
76577;DHT22;65441;44.748;37.600;2023-07-08T11:10:31;29.98;67.33
76577;DHT22;65441;44.748;37.600;2023-07-08T11:13:05;30.26;67.30
76577;DHT22;65441;44.748;37.600;2023-07-08T11:15:40;30.42;64.82
76577;DHT22;65441;44.748;37.600;2023-07-08T11:18:14;30.53;64.42
76577;DHT22;65441;44.748;37.600;2023-07-08T11:20:45;30.51;64.40
76577;DHT22;65441;44.748;37.600;2023-07-08T11:23:25;30.57;65.30
76577;DHT22;65441;44.748;37.600;2023-07-08T11:26:07;30.35;65.94
76577;DHT22;65441;44.748;37.600;2023-07-08T11:28:38;30.15;66.09
76577;DHT22;65441;44.748;37.600;2023-07-08T11:31:07;30.32;64.77
76577;DHT22;65441;44.748;37.600;2023-07-08T11:33:37;30.38;63.24
76577;DHT22;65441;44.748;37.600;2023-07-08T11:36:09;30.41;64.15
76577;DHT22;65441;44.748;37.600;2023-07-08T11:38:48;29.81;65.97
76577;DHT22;65441;44.748;37.600;2023-07-08T11:41:19;29.60;66.65
76577;DHT22;65441;44.748;37.600;2023-07-08T11:43:51;29.47;67.72
76577;DHT22;65441;44.748;37.600;2023-07-08T11:46:22;28.99;68.69
76577;DHT22;65441;44.748;37.600;2023-07-08T11:48:54;28.88;68.60
76577;DHT22;65441;44.748;37.600;2023-07-08T11:51:27;28.74;69.26
76577;DHT22;65441;44.748;37.600;2023-07-08T11:54:12;28.69;69.91
76577;DHT22;65441;44.748;37.600;2023-07-08T11:56:57;28.84;68.26
76577;DHT22;65441;44.748;37.600;2023-07-08T11:59:29;28.72;68.71
76577;DHT22;65441;44.748;37.600;2023-07-08T12:02:11;28.80;67.66
76577;DHT22;65441;44.748;37.600;2023-07-08T12:07:31;29.15;66.95
76577;DHT22;65441;44.748;37.600;2023-07-08T12:10:06;29.08;67.68
76577;DHT22;65441;44.748;37.600;2023-07-08T12:12:43;28.92;68.17
76577;DHT22;65441;44.748;37.600;2023-07-08T12:15:24;28.80;68.90
76577;DHT22;65441;44.748;37.600;2023-07-08T12:18:01;28.90;69.20
76577;DHT22;65441;44.748;37.600;2023-07-08T12:20:37;28.77;71.26
76577;DHT22;65441;44.748;37.600;2023-07-08T12:23:12;28.89;70.97
76577;DHT22;65441;44.748;37.600;2023-07-08T12:25:43;28.98;70.55
76577;DHT22;65441;44.748;37.600;2023-07-08T12:28:12;28.99;70.58
76577;DHT22;65441;44.748;37.600;2023-07-08T12:30:41;28.83;70.75
76577;DHT22;65441;44.748;37.600;2023-07-08T12:33:12;28.73;71.05
76577;DHT22;65441;44.748;37.600;2023-07-08T12:35:42;29.11;69.63
76577;DHT22;65441;44.748;37.600;2023-07-08T12:38:18;29.12;69.62
76577;DHT22;65441;44.748;37.600;2023-07-08T12:40:50;29.06;70.04
76577;DHT22;65441;44.748;37.600;2023-07-08T12:43:18;28.91;69.86
76577;DHT22;65441;44.748;37.600;2023-07-08T12:45:47;28.99;69.90
76577;DHT22;65441;44.748;37.600;2023-07-08T12:48:15;29.05;69.38
76577;DHT22;65441;44.748;37.600;2023-07-08T12:50:43;29.00;70.29
76577;DHT22;65441;44.748;37.600;2023-07-08T12:53:15;29.02;70.10
76577;DHT22;65441;44.748;37.600;2023-07-08T12:55:50;29.06;70.05
76577;DHT22;65441;44.748;37.600;2023-07-08T12:58:26;28.87;69.97
76577;DHT22;65441;44.748;37.600;2023-07-08T13:01:03;28.67;70.75
76577;DHT22;65441;44.748;37.600;2023-07-08T13:03:40;28.46;71.70
76577;DHT22;65441;44.748;37.600;2023-07-08T13:06:12;28.12;72.45
76577;DHT22;65441;44.748;37.600;2023-07-08T13:08:42;28.08;72.48
76577;DHT22;65441;44.748;37.600;2023-07-08T13:11:19;28.08;71.90
76577;DHT22;65441;44.748;37.600;2023-07-08T13:13:55;28.25;70.94
76577;DHT22;65441;44.748;37.600;2023-07-08T13:16:31;28.30;70.94
76577;DHT22;65441;44.748;37.600;2023-07-08T13:19:02;28.28;71.29
76577;DHT22;65441;44.748;37.600;2023-07-08T13:21:32;28.20;71.97
76577;DHT22;65441;44.748;37.600;2023-07-08T13:24:09;28.33;70.95
76577;DHT22;65441;44.748;37.600;2023-07-08T13:26:45;28.39;70.71
76577;DHT22;65441;44.748;37.600;2023-07-08T13:29:15;28.54;69.91
76577;DHT22;65441;44.748;37.600;2023-07-08T13:31:48;28.70;68.93
76577;DHT22;65441;44.748;37.600;2023-07-08T13:34:23;28.99;68.44
76577;DHT22;65441;44.748;37.600;2023-07-08T13:36:55;28.75;69.67
76577;DHT22;65441;44.748;37.600;2023-07-08T13:39:28;28.75;70.16
76577;DHT22;65441;44.748;37.600;2023-07-08T13:41:58;28.85;69.98
76577;DHT22;65441;44.748;37.600;2023-07-08T13:44:28;28.67;70.04
76577;DHT22;65441;44.748;37.600;2023-07-08T13:47:02;28.41;70.94
76577;DHT22;65441;44.748;37.600;2023-07-08T13:49:40;28.24;71.21
76577;DHT22;65441;44.748;37.600;2023-07-08T13:52:15;28.15;71.80
76577;DHT22;65441;44.748;37.600;2023-07-08T13:54:48;27.95;72.19
76577;DHT22;65441;44.748;37.600;2023-07-08T13:57:23;27.87;72.30
76577;DHT22;65441;44.748;37.600;2023-07-08T13:59:53;27.86;72.53
76577;DHT22;65441;44.748;37.600;2023-07-08T14:02:24;27.80;73.51
76577;DHT22;65441;44.748;37.600;2023-07-08T14:04:54;27.82;73.89
76577;DHT22;65441;44.748;37.600;2023-07-08T14:07:29;27.68;74.81
76577;DHT22;65441;44.748;37.600;2023-07-08T14:10:00;27.73;74.68
76577;DHT22;65441;44.748;37.600;2023-07-08T14:12:32;27.63;75.63
76577;DHT22;65441;44.748;37.600;2023-07-08T14:15:06;27.71;75.84
76577;DHT22;65441;44.748;37.600;2023-07-08T14:17:38;27.85;75.56
76577;DHT22;65441;44.748;37.600;2023-07-08T14:20:15;27.88;75.06
76577;DHT22;65441;44.748;37.600;2023-07-08T14:22:47;28.16;74.11
76577;DHT22;65441;44.748;37.600;2023-07-08T14:25:18;28.06;74.42
76577;DHT22;65441;44.748;37.600;2023-07-08T14:27:54;28.10;74.12
76577;DHT22;65441;44.748;37.600;2023-07-08T14:30:26;28.10;74.02
76577;DHT22;65441;44.748;37.600;2023-07-08T14:32:59;28.00;75.18
76577;DHT22;65441;44.748;37.600;2023-07-08T14:35:32;27.94;75.28
76577;DHT22;65441;44.748;37.600;2023-07-08T14:38:02;27.76;76.03
76577;DHT22;65441;44.748;37.600;2023-07-08T14:40:34;27.70;76.57
76577;DHT22;65441;44.748;37.600;2023-07-08T14:43:13;27.67;77.15
76577;DHT22;65441;44.748;37.600;2023-07-08T14:45:49;27.67;77.24
76577;DHT22;65441;44.748;37.600;2023-07-08T14:48:21;27.44;78.19
76577;DHT22;65441;44.748;37.600;2023-07-08T14:50:52;27.31;78.61
76577;DHT22;65441;44.748;37.600;2023-07-08T14:53:23;27.29;78.58
76577;DHT22;65441;44.748;37.600;2023-07-08T14:55:54;27.29;78.32
76577;DHT22;65441;44.748;37.600;2023-07-08T14:58:26;27.29;77.79
76577;DHT22;65441;44.748;37.600;2023-07-08T15:00:57;27.36;77.31
76577;DHT22;65441;44.748;37.600;2023-07-08T15:03:26;27.41;77.82
76577;DHT22;65441;44.748;37.600;2023-07-08T15:05:55;27.38;77.82
76577;DHT22;65441;44.748;37.600;2023-07-08T15:08:23;27.30;78.28
76577;DHT22;65441;44.748;37.600;2023-07-08T15:10:52;27.36;77.95
76577;DHT22;65441;44.748;37.600;2023-07-08T15:13:23;27.46;78.03
76577;DHT22;65441;44.748;37.600;2023-07-08T15:15:57;27.29;78.51
76577;DHT22;65441;44.748;37.600;2023-07-08T15:18:26;27.29;78.80
76577;DHT22;65441;44.748;37.600;2023-07-08T15:20:55;27.35;77.95
76577;DHT22;65441;44.748;37.600;2023-07-08T15:23:24;27.38;77.64
76577;DHT22;65441;44.748;37.600;2023-07-08T15:25:58;27.42;77.13
76577;DHT22;65441;44.748;37.600;2023-07-08T15:28:39;27.70;76.08
76577;DHT22;65441;44.748;37.600;2023-07-08T15:31:16;27.84;75.45
76577;DHT22;65441;44.748;37.600;2023-07-08T15:33:47;27.69;75.24
76577;DHT22;65441;44.748;37.600;2023-07-08T15:36:17;27.76;74.89
76577;DHT22;65441;44.748;37.600;2023-07-08T15:38:50;27.83;74.66
76577;DHT22;65441;44.748;37.600;2023-07-08T15:41:22;27.75;73.62
76577;DHT22;65441;44.748;37.600;2023-07-08T15:43:57;27.69;73.83
76577;DHT22;65441;44.748;37.600;2023-07-08T15:46:34;27.59;74.27
76577;DHT22;65441;44.748;37.600;2023-07-08T15:49:17;27.45;74.84
76577;DHT22;65441;44.748;37.600;2023-07-08T15:51:49;27.35;75.70